createdAt,value
2022-10-12T00:02:14.880Z,7.58
2022-10-12T00:04:43.774Z,7.70
2022-10-12T00:07:13.944Z,7.48
2022-10-12T00:09:42.265Z,7.56
2022-10-12T00:12:10.498Z,7.37
2022-10-12T00:14:39.753Z,7.55
2022-10-12T00:17:09.833Z,7.44
2022-10-12T00:19:39.464Z,7.18
2022-10-12T00:22:08.311Z,7.04
2022-10-12T00:24:42.953Z,7.13
2022-10-12T00:27:12.123Z,7.06
2022-10-12T00:29:40.397Z,6.88
2022-10-12T00:32:09.624Z,6.85
2022-10-12T00:34:38.180Z,6.77
2022-10-12T00:37:06.928Z,6.91
2022-10-12T00:39:39.700Z,6.76
2022-10-12T00:42:08.106Z,6.81
2022-10-12T00:44:40.856Z,6.79
2022-10-12T00:47:18.803Z,6.69
2022-10-12T00:49:53.035Z,6.56
2022-10-12T00:52:24.782Z,6.65
2022-10-12T00:54:59.128Z,6.61
2022-10-12T00:57:27.768Z,6.57
2022-10-12T00:59:59.864Z,6.57
2022-10-12T01:02:31.509Z,6.57
2022-10-12T01:05:02.368Z,6.68
2022-10-12T01:07:30.554Z,6.63
2022-10-12T01:10:02.316Z,6.52
2022-10-12T01:12:31.019Z,6.53
2022-10-12T01:14:59.756Z,6.35
2022-10-12T01:17:39.794Z,6.38
2022-10-12T01:20:37.469Z,6.44
2022-10-12T01:23:35.757Z,6.54
2022-10-12T01:26:38.870Z,6.49
2022-10-12T01:29:24.697Z,6.44
2022-10-12T01:32:00.561Z,6.41
2022-10-12T01:34:36.298Z,6.40
2022-10-12T01:37:12.685Z,6.24
2022-10-12T01:39:47.438Z,6.23
2022-10-12T01:42:21.876Z,6.17
2022-10-12T01:44:50.435Z,6.21
2022-10-12T01:47:21.159Z,6.10
2022-10-12T01:49:49.891Z,6.15
2022-10-12T01:52:27.408Z,6.11
2022-10-12T01:55:10.804Z,6.18
2022-10-12T01:57:48.744Z,6.41
2022-10-12T02:00:19.943Z,6.44
2022-10-12T02:03:00.045Z,6.46
2022-10-12T02:05:37.227Z,6.43
2022-10-12T02:08:15.615Z,6.42
2022-10-12T02:10:48.876Z,6.21
2022-10-12T02:13:20.920Z,6.30
2022-10-12T02:15:50.299Z,6.27
2022-10-12T02:18:23.029Z,6.10
2022-10-12T02:20:56.187Z,6.15
2022-10-12T02:23:27.044Z,6.23
2022-10-12T02:25:57.833Z,6.19
2022-10-12T02:28:31.398Z,6.20
2022-10-12T02:31:04.313Z,6.18
2022-10-12T02:33:41.979Z,6.28
2022-10-12T02:36:14.705Z,6.35
2022-10-12T02:38:48.681Z,6.37
2022-10-12T02:41:23.049Z,6.30
2022-10-12T02:43:55.954Z,6.24
2022-10-12T02:46:27.262Z,6.32
2022-10-12T02:48:59.266Z,6.07
2022-10-12T02:51:30.312Z,6.08
2022-10-12T02:53:58.680Z,6.21
2022-10-12T02:56:27.353Z,6.25
2022-10-12T02:58:55.992Z,6.29
2022-10-12T03:01:24.353Z,6.22
2022-10-12T03:03:53.020Z,6.26
2022-10-12T03:06:24.173Z,6.01
2022-10-12T03:08:55.560Z,6.07
2022-10-12T03:11:24.162Z,6.13
2022-10-12T03:13:54.098Z,6.09
2022-10-12T03:16:22.869Z,6.09
2022-10-12T03:18:51.908Z,6.15
2022-10-12T03:21:21.537Z,6.16
2022-10-12T03:23:51.378Z,6.25
2022-10-12T03:26:20.117Z,6.32
2022-10-12T03:28:48.556Z,6.31
2022-10-12T03:31:17.199Z,6.15
2022-10-12T03:33:47.191Z,6.03
2022-10-12T03:36:16.109Z,6.05
2022-10-12T03:38:44.546Z,5.87
2022-10-12T03:41:14.356Z,5.92
2022-10-12T03:43:42.872Z,5.88
2022-10-12T03:46:11.088Z,5.88
2022-10-12T03:48:39.415Z,5.65
2022-10-12T03:51:08.135Z,5.62
2022-10-12T03:53:40.688Z,5.67
2022-10-12T03:56:14.499Z,5.75
2022-10-12T03:58:42.623Z,5.78
2022-10-12T04:01:10.984Z,5.80
2022-10-12T04:03:39.384Z,5.83
2022-10-12T04:06:08.834Z,5.69
2022-10-12T04:08:40.165Z,5.64
2022-10-12T04:11:08.937Z,5.59
2022-10-12T04:13:38.851Z,5.57
2022-10-12T04:16:09.168Z,5.55
2022-10-12T04:18:38.302Z,5.49
2022-10-12T04:21:11.180Z,5.42
2022-10-12T04:23:41.129Z,5.43
2022-10-12T04:26:09.664Z,5.27
2022-10-12T04:28:40.295Z,5.32
2022-10-12T04:31:08.841Z,5.26
2022-10-12T04:33:37.328Z,5.26
2022-10-12T04:36:06.066Z,5.17
2022-10-12T04:38:34.428Z,5.24
2022-10-12T04:41:02.641Z,5.25
2022-10-12T04:43:30.957Z,5.24
2022-10-12T04:46:02.025Z,5.09
2022-10-12T04:48:30.504Z,5.21
2022-10-12T04:51:01.261Z,5.27
2022-10-12T04:53:29.771Z,5.26
2022-10-12T04:55:58.119Z,5.22
2022-10-12T04:58:26.352Z,5.17
2022-10-12T05:00:54.732Z,5.22
2022-10-12T05:03:25.286Z,5.13
2022-10-12T05:05:53.902Z,5.25
2022-10-12T05:08:22.097Z,5.23
2022-10-12T05:10:50.631Z,5.20
2022-10-12T05:13:19.081Z,5.25
2022-10-12T05:15:47.445Z,5.12
2022-10-12T05:18:15.690Z,5.14
2022-10-12T05:20:45.963Z,4.97
2022-10-12T05:23:14.424Z,4.96
2022-10-12T05:25:45.191Z,4.84
2022-10-12T05:28:15.361Z,4.89
2022-10-12T05:30:45.945Z,4.95
2022-10-12T05:33:15.427Z,5.01
2022-10-12T05:35:48.744Z,5.11
2022-10-12T05:38:19.467Z,5.03
2022-10-12T05:40:48.398Z,5.01
2022-10-12T05:43:17.622Z,5.14
2022-10-12T05:45:48.016Z,5.08
2022-10-12T05:48:16.377Z,4.99
2022-10-12T05:50:46.128Z,5.21
2022-10-12T05:53:15.306Z,5.16
2022-10-12T05:55:53.492Z,4.98
2022-10-12T05:58:22.261Z,5.00
2022-10-12T06:00:50.650Z,4.99
2022-10-12T06:03:21.090Z,4.98
2022-10-12T06:05:52.910Z,4.91
2022-10-12T06:08:21.273Z,4.93
2022-10-12T06:10:55.841Z,5.03
2022-10-12T06:13:24.209Z,4.90
2022-10-12T06:15:53.269Z,5.05
2022-10-12T06:18:21.451Z,5.06
2022-10-12T06:20:56.542Z,4.95
2022-10-12T06:23:38.661Z,5.09
2022-10-12T06:26:07.772Z,5.14
2022-10-12T06:28:36.127Z,4.97
2022-10-12T06:31:04.592Z,5.12
2022-10-12T06:33:32.861Z,5.19
2022-10-12T06:36:01.222Z,5.24
2022-10-12T06:38:29.995Z,5.31
2022-10-12T06:40:59.852Z,5.25
2022-10-12T06:43:28.378Z,5.20
2022-10-12T06:46:01.463Z,5.33
2022-10-12T06:48:29.799Z,5.47
2022-10-12T06:50:58.405Z,5.55
2022-10-12T06:53:28.976Z,5.66
2022-10-12T06:55:57.228Z,5.87
2022-10-12T06:58:27.135Z,5.80
2022-10-12T07:00:56.872Z,5.96
2022-10-12T07:03:25.467Z,5.97
2022-10-12T07:05:53.627Z,5.98
2022-10-12T07:08:22.538Z,6.05
2022-10-12T07:10:59.030Z,6.31
2022-10-12T07:13:30.366Z,6.34
2022-10-12T07:15:58.847Z,6.43
2022-10-12T07:18:28.580Z,6.59
2022-10-12T07:20:59.985Z,6.60
2022-10-12T07:23:28.843Z,6.75
2022-10-12T07:25:57.663Z,6.85
2022-10-12T07:28:28.760Z,6.88
2022-10-12T07:31:03.377Z,6.80
2022-10-12T07:33:35.668Z,6.85
2022-10-12T07:36:21.865Z,7.17
2022-10-12T07:38:52.987Z,7.14
2022-10-12T07:41:21.628Z,7.19
2022-10-12T07:43:50.357Z,7.25
2022-10-12T07:46:20.572Z,7.34
2022-10-12T07:48:50.550Z,7.45
2022-10-12T07:51:19.646Z,7.57
2022-10-12T07:53:48.915Z,7.79
2022-10-12T07:56:18.008Z,7.84
2022-10-12T07:58:51.108Z,7.95
2022-10-12T08:01:22.339Z,8.09
2022-10-12T08:03:51.391Z,7.97
2022-10-12T08:06:22.889Z,8.13
2022-10-12T08:08:51.550Z,8.27
2022-10-12T08:11:20.983Z,8.41
2022-10-12T08:13:51.781Z,8.47
2022-10-12T08:16:22.436Z,8.58
2022-10-12T08:18:53.385Z,8.45
2022-10-12T08:21:22.395Z,8.49
2022-10-12T08:23:50.681Z,8.60
2022-10-12T08:26:19.132Z,8.54
2022-10-12T08:28:47.399Z,8.74
2022-10-12T08:31:18.006Z,8.92
2022-10-12T08:33:47.855Z,9.04
2022-10-12T08:36:17.299Z,9.17
2022-10-12T08:38:48.774Z,9.16
2022-10-12T08:41:37.860Z,8.99
2022-10-12T08:44:23.301Z,9.36
2022-10-12T08:46:56.497Z,9.42
2022-10-12T08:49:29.976Z,9.69
2022-10-12T08:52:01.426Z,9.73
2022-10-12T08:54:38.063Z,9.97
2022-10-12T08:57:06.784Z,10.07
2022-10-12T08:59:35.203Z,9.95
2022-10-12T09:02:16.080Z,10.51
2022-10-12T09:04:58.573Z,10.90
2022-10-12T09:07:31.194Z,11.20
2022-10-12T09:10:12.773Z,11.27
2022-10-12T09:12:51.057Z,11.39
2022-10-12T09:15:24.760Z,11.21
2022-10-12T09:17:55.105Z,11.74
2022-10-12T09:20:30.135Z,11.68
2022-10-12T09:23:03.668Z,11.72
2022-10-12T09:25:34.125Z,11.75
2022-10-12T09:28:16.077Z,12.25
2022-10-12T09:30:55.379Z,12.49
2022-10-12T09:33:29.313Z,12.88
2022-10-12T09:35:59.769Z,13.29
2022-10-12T09:38:30.461Z,13.27
2022-10-12T09:41:00.947Z,13.56
2022-10-12T09:43:29.759Z,13.66
2022-10-12T09:46:03.061Z,14.15
2022-10-12T09:48:31.245Z,14.62
2022-10-12T09:51:04.491Z,14.80
2022-10-12T09:53:36.345Z,15.12
2022-10-12T09:56:10.766Z,15.28
2022-10-12T09:58:55.111Z,14.74
2022-10-12T10:01:27.724Z,14.94
2022-10-12T10:04:11.370Z,15.03
2022-10-12T10:06:43.295Z,15.02
2022-10-12T10:09:33.771Z,15.84
2022-10-12T10:12:15.273Z,15.64
2022-10-12T10:14:45.757Z,15.97
2022-10-12T10:17:26.476Z,15.97
2022-10-12T10:19:56.666Z,15.96
2022-10-12T10:22:27.455Z,15.08
2022-10-12T10:25:00.383Z,14.95
2022-10-12T10:27:37.912Z,15.88
2022-10-12T10:30:36.442Z,15.68
2022-10-12T10:33:22.863Z,15.54
2022-10-12T10:36:02.481Z,16.48
2022-10-12T10:38:47.292Z,16.82
2022-10-12T10:41:20.137Z,17.03
2022-10-12T10:43:50.620Z,16.65
2022-10-12T10:46:25.549Z,15.41
2022-10-12T10:48:58.324Z,15.62
2022-10-12T10:51:48.472Z,16.42
2022-10-12T10:54:29.119Z,16.62
2022-10-12T10:57:04.077Z,16.84
2022-10-12T10:59:41.160Z,17.62
2022-10-12T11:02:27.009Z,16.94
2022-10-12T11:05:02.686Z,16.88
2022-10-12T11:07:39.064Z,17.35
2022-10-12T11:10:25.388Z,17.59
2022-10-12T11:13:01.173Z,17.79
2022-10-12T11:15:36.153Z,18.03
2022-10-12T11:18:17.682Z,17.53
2022-10-12T11:20:53.594Z,17.95
2022-10-12T11:23:39.979Z,17.44
2022-10-12T11:26:20.715Z,18.11
2022-10-12T11:28:49.603Z,18.53
2022-10-12T11:31:23.249Z,18.45
2022-10-12T11:33:54.372Z,18.31
2022-10-12T11:36:26.065Z,18.13
2022-10-12T11:39:02.053Z,18.09
2022-10-12T11:42:09.572Z,17.39
2022-10-12T11:44:44.909Z,17.44
2022-10-12T11:47:23.795Z,17.30
2022-10-12T11:49:59.544Z,16.85
2022-10-12T11:52:45.165Z,17.89
2022-10-12T11:55:55.539Z,18.55
2022-10-12T11:58:48.903Z,18.30
2022-10-12T12:01:38.384Z,18.70
2022-10-12T12:04:40.518Z,17.55
2022-10-12T12:07:30.096Z,17.27
2022-10-12T12:09:58.325Z,16.66
2022-10-12T12:12:29.099Z,17.70
2022-10-12T12:15:06.995Z,18.15
2022-10-12T12:17:36.035Z,18.51
2022-10-12T12:20:26.047Z,17.82
2022-10-12T12:22:57.005Z,17.97
2022-10-12T12:25:33.539Z,18.57
2022-10-12T12:28:17.987Z,18.47
2022-10-12T12:30:58.839Z,18.95
2022-10-12T12:33:33.349Z,18.95
2022-10-12T12:36:04.769Z,18.81
2022-10-12T12:38:39.347Z,16.91
2022-10-12T12:41:11.671Z,17.48
2022-10-12T12:44:01.605Z,17.74
2022-10-12T12:50:33.022Z,18.21
2022-10-12T12:53:07.546Z,18.33
2022-10-12T12:55:49.177Z,17.82
2022-10-12T12:58:31.131Z,18.62
2022-10-12T13:01:29.157Z,18.81
2022-10-12T13:04:12.178Z,18.90
2022-10-12T13:07:14.116Z,19.15
2022-10-12T13:09:53.553Z,18.44
2022-10-12T13:12:34.625Z,19.09
2022-10-12T13:15:22.044Z,19.36
2022-10-12T13:18:28.591Z,18.90
2022-10-12T13:21:08.496Z,18.03
2022-10-12T13:23:38.715Z,17.49
2022-10-12T13:26:09.920Z,17.99
2022-10-12T13:28:42.824Z,17.58
2022-10-12T13:31:20.177Z,17.61
2022-10-12T13:33:55.845Z,17.87
2022-10-12T13:36:27.787Z,18.02
2022-10-12T13:39:00.841Z,18.36
2022-10-12T13:41:31.686Z,18.69
2022-10-12T13:44:01.430Z,18.42
2022-10-12T13:46:40.910Z,18.41
2022-10-12T13:49:16.373Z,18.99
2022-10-12T13:51:48.323Z,19.38
2022-10-12T13:54:21.280Z,19.69
2022-10-12T13:56:52.798Z,19.64
2022-10-12T13:59:23.967Z,20.04
2022-10-12T14:01:55.614Z,20.50
2022-10-12T14:04:24.526Z,20.61
2022-10-12T14:06:58.783Z,19.88
2022-10-12T14:09:35.286Z,20.27
2022-10-12T14:12:05.747Z,20.26
2022-10-12T14:14:36.459Z,20.38
2022-10-12T14:17:05.219Z,20.24
2022-10-12T14:19:43.844Z,20.95
2022-10-12T14:22:13.744Z,21.48
2022-10-12T14:24:43.580Z,21.52
2022-10-12T14:27:26.410Z,22.06
2022-10-12T14:29:59.508Z,22.77
2022-10-12T14:32:41.229Z,23.03
2022-10-12T14:35:31.270Z,23.72
2022-10-12T14:37:59.928Z,23.58
2022-10-12T14:40:34.680Z,23.32
2022-10-12T14:43:08.191Z,23.32
2022-10-12T14:45:38.086Z,22.56
2022-10-12T14:48:11.435Z,21.85
2022-10-12T14:50:43.518Z,21.62
2022-10-12T14:53:14.540Z,21.00
2022-10-12T14:55:44.788Z,20.77
2022-10-12T14:58:17.072Z,20.25
2022-10-12T15:00:47.447Z,20.03
2022-10-12T15:03:18.296Z,19.92
2022-10-12T15:05:47.010Z,19.90
2022-10-12T15:08:15.403Z,19.43
2022-10-12T15:10:46.071Z,19.07
2022-10-12T15:13:17.533Z,19.26
2022-10-12T15:15:51.556Z,19.08
2022-10-12T15:18:19.941Z,18.84
2022-10-12T15:20:49.930Z,18.78
2022-10-12T15:23:20.493Z,18.83
2022-10-12T15:25:52.939Z,18.72
2022-10-12T15:28:25.053Z,18.58
2022-10-12T15:33:44.033Z,18.41
2022-10-12T15:36:16.590Z,18.38
2022-10-12T15:38:45.277Z,18.35
2022-10-12T15:41:19.390Z,18.31
2022-10-12T15:43:47.924Z,18.34
2022-10-12T15:46:16.337Z,18.21
2022-10-12T15:48:45.146Z,18.28
2022-10-12T15:51:19.645Z,17.94
2022-10-12T15:53:48.467Z,17.88
2022-10-12T15:56:20.587Z,17.82
2022-10-12T15:58:49.802Z,17.91
2022-10-12T16:01:20.938Z,17.88
2022-10-12T16:03:50.542Z,18.07
2022-10-12T16:06:20.004Z,18.20
2022-10-12T16:08:48.668Z,18.35
2022-10-12T16:11:19.888Z,18.57
2022-10-12T16:13:55.616Z,18.58
2022-10-12T16:16:24.939Z,18.71
2022-10-12T16:18:54.220Z,18.68
2022-10-12T16:21:25.166Z,18.47
2022-10-12T16:23:53.599Z,18.37
2022-10-12T16:26:25.396Z,18.15
2022-10-12T16:28:53.770Z,17.95
2022-10-12T16:31:22.263Z,17.78
2022-10-12T16:33:50.844Z,17.51
2022-10-12T16:36:19.508Z,17.26
2022-10-12T16:38:50.969Z,17.17
2022-10-12T16:41:19.945Z,17.05
2022-10-12T16:43:50.362Z,17.02
2022-10-12T16:46:19.321Z,16.92
2022-10-12T16:48:47.987Z,16.69
2022-10-12T16:51:16.254Z,16.63
2022-10-12T16:53:44.486Z,16.50
2022-10-12T16:56:13.715Z,16.55
2022-10-12T16:58:42.714Z,16.26
2022-10-12T17:01:13.876Z,16.01
2022-10-12T17:03:42.374Z,16.05
2022-10-12T17:06:11.803Z,15.92
2022-10-12T17:08:41.474Z,15.86
2022-10-12T17:11:11.134Z,15.72
2022-10-12T17:13:43.142Z,15.55
2022-10-12T17:16:36.367Z,15.47
2022-10-12T17:19:05.283Z,15.43
2022-10-12T17:21:34.167Z,15.10
2022-10-12T17:24:03.791Z,14.97
2022-10-12T17:26:40.207Z,14.83
2022-10-12T17:29:14.598Z,14.94
2022-10-12T17:31:46.993Z,14.73
2022-10-12T17:34:19.732Z,14.70
2022-10-12T17:36:49.328Z,14.46
2022-10-12T17:39:18.737Z,14.51
2022-10-12T17:41:48.888Z,14.28
2022-10-12T17:44:18.050Z,14.45
2022-10-12T17:46:48.602Z,14.49
2022-10-12T17:49:24.277Z,14.26
2022-10-12T17:51:54.637Z,14.19
2022-10-12T17:54:25.378Z,14.16
2022-10-12T17:56:54.296Z,14.13
2022-10-12T17:59:23.559Z,14.16
2022-10-12T18:01:54.731Z,13.98
2022-10-12T18:04:23.738Z,14.00
2022-10-12T18:06:52.081Z,13.95
2022-10-12T18:09:20.530Z,13.84
2022-10-12T18:11:49.221Z,13.99
2022-10-12T18:14:18.000Z,13.81
2022-10-12T18:16:46.251Z,13.74
2022-10-12T18:19:16.243Z,13.90
2022-10-12T18:21:46.691Z,13.96
2022-10-12T18:24:20.844Z,13.70
2022-10-12T18:26:52.628Z,13.64
2022-10-12T18:29:21.329Z,13.46
2022-10-12T18:31:49.980Z,13.58
2022-10-12T18:34:19.495Z,13.43
2022-10-12T18:36:51.144Z,13.59
2022-10-12T18:39:21.628Z,13.66
2022-10-12T18:41:52.433Z,13.50
2022-10-12T18:44:22.645Z,13.34
2022-10-12T18:46:51.788Z,13.19
2022-10-12T18:49:21.857Z,13.30
2022-10-12T18:51:52.904Z,13.31
2022-10-12T18:54:22.666Z,13.20
2022-10-12T18:56:52.568Z,13.08
2022-10-12T18:59:23.567Z,13.08
2022-10-12T19:01:52.884Z,13.03
2022-10-12T19:04:22.933Z,12.84
2022-10-12T19:06:55.571Z,12.73
2022-10-12T19:09:25.999Z,12.65
2022-10-12T19:11:56.048Z,12.64
2022-10-12T19:14:24.364Z,12.59
2022-10-12T19:16:53.150Z,12.80
2022-10-12T19:19:23.196Z,12.75
2022-10-12T19:21:52.121Z,12.63
2022-10-12T19:24:20.915Z,12.40
2022-10-12T19:26:49.755Z,12.33
2022-10-12T19:29:18.224Z,12.39
2022-10-12T19:31:52.287Z,12.14
2022-10-12T19:34:24.352Z,12.10
2022-10-12T19:36:53.681Z,12.14
2022-10-12T19:39:24.166Z,12.13
2022-10-12T19:41:53.391Z,12.05
2022-10-12T19:44:22.380Z,12.15
2022-10-12T19:46:53.628Z,12.19
2022-10-12T19:49:23.723Z,12.27
2022-10-12T19:51:52.328Z,12.17
2022-10-12T19:54:22.073Z,12.11
2022-10-12T19:56:50.397Z,12.10
2022-10-12T19:59:19.414Z,12.09
2022-10-12T20:01:48.868Z,12.14
2022-10-12T20:04:17.391Z,12.12
2022-10-12T20:06:59.489Z,12.33
2022-10-12T20:09:27.761Z,12.32
2022-10-12T20:11:56.425Z,12.41
2022-10-12T20:14:25.809Z,12.39
2022-10-12T20:16:54.862Z,12.49
2022-10-12T20:19:23.546Z,12.22
2022-10-12T20:21:56.536Z,12.25
2022-10-12T20:24:24.885Z,12.12
2022-10-12T20:26:53.556Z,11.98
2022-10-12T20:29:22.045Z,11.95
2022-10-12T20:31:51.158Z,11.80
2022-10-12T20:34:19.450Z,11.79
2022-10-12T20:36:48.096Z,11.86
2022-10-12T20:39:18.772Z,11.85
2022-10-12T20:41:47.543Z,11.89
2022-10-12T20:44:15.881Z,12.04
2022-10-12T20:46:48.990Z,12.13
2022-10-12T20:49:17.109Z,12.05
2022-10-12T20:51:46.043Z,11.59
2022-10-12T20:54:16.297Z,11.60
2022-10-12T20:56:48.229Z,11.68
2022-10-12T20:59:16.701Z,11.76
2022-10-12T21:01:45.664Z,11.94
2022-10-12T21:04:14.089Z,11.86
2022-10-12T21:06:43.134Z,11.86
2022-10-12T21:09:15.520Z,12.03
2022-10-12T21:11:44.955Z,11.87
2022-10-12T21:14:15.621Z,11.94
2022-10-12T21:16:44.194Z,12.11
2022-10-12T21:19:15.911Z,12.05
2022-10-12T21:21:45.309Z,12.08
2022-10-12T21:24:15.377Z,12.00
2022-10-12T21:26:43.967Z,12.02
2022-10-12T21:29:12.592Z,12.14
2022-10-12T21:31:42.683Z,12.03
2022-10-12T21:34:12.715Z,11.96
2022-10-12T21:36:41.156Z,11.97
2022-10-12T21:39:12.200Z,11.72
2022-10-12T21:41:43.213Z,11.75
2022-10-12T21:44:11.993Z,11.70
2022-10-12T21:46:42.549Z,11.74
2022-10-12T21:49:13.020Z,11.69
2022-10-12T21:51:41.653Z,11.66
2022-10-12T21:54:12.690Z,11.69
2022-10-12T21:56:42.440Z,11.59
2022-10-12T21:59:11.455Z,11.46
2022-10-12T22:01:43.206Z,11.42
2022-10-12T22:04:15.894Z,11.13
2022-10-12T22:06:44.650Z,11.21
2022-10-12T22:09:16.930Z,11.17
2022-10-12T22:11:46.214Z,11.08
2022-10-12T22:14:22.060Z,11.14
2022-10-12T22:16:52.301Z,11.13
2022-10-12T22:19:22.619Z,10.95
2022-10-12T22:22:00.125Z,10.92
2022-10-12T22:24:30.664Z,10.92
2022-10-12T22:26:59.113Z,10.75
2022-10-12T22:29:27.598Z,10.70
2022-10-12T22:31:57.734Z,10.65
2022-10-12T22:34:26.835Z,10.58
2022-10-12T22:36:55.229Z,10.53
2022-10-12T22:39:23.530Z,10.65
2022-10-12T22:41:51.790Z,10.61
2022-10-12T22:44:20.384Z,10.59
2022-10-12T22:46:49.097Z,10.74
2022-10-12T22:49:20.698Z,10.60
2022-10-12T22:51:49.459Z,10.33
2022-10-12T22:54:17.966Z,10.42
2022-10-12T22:56:46.661Z,10.66
2022-10-12T22:59:16.430Z,10.58
2022-10-12T23:01:45.378Z,10.45
2022-10-12T23:04:16.796Z,10.21
2022-10-12T23:06:47.051Z,9.93
2022-10-12T23:09:16.814Z,10.05
2022-10-12T23:11:45.248Z,9.93
2022-10-12T23:14:14.793Z,9.98
2022-10-12T23:16:43.513Z,9.94
2022-10-12T23:19:11.846Z,10.00
2022-10-12T23:21:40.179Z,10.05
2022-10-12T23:24:11.416Z,9.98
2022-10-12T23:26:39.762Z,10.08
2022-10-12T23:29:11.074Z,10.16
2022-10-12T23:31:40.020Z,10.09
2022-10-12T23:34:09.578Z,10.17
2022-10-12T23:36:38.718Z,10.22
2022-10-12T23:39:07.608Z,10.27
2022-10-12T23:41:37.304Z,10.50
2022-10-12T23:44:06.287Z,10.60
2022-10-12T23:46:34.819Z,10.51
2022-10-12T23:49:03.361Z,10.66
2022-10-12T23:51:31.767Z,10.48
2022-10-12T23:54:00.392Z,10.46
2022-10-12T23:56:29.191Z,10.30
2022-10-12T23:58:59.285Z,10.39
